Mandarin River — 9V7657 — position and weather

sailwx.info

Track history (hours):
 
Tides and Currents Weather Stations Pressure Air Temp Water Temp Dewpoint Dewpoint Depression Visibility Wind Speed Wind Dir Waves Ship Positions

Mandarin River

Last reported at 2018-Apr-07 09:16 UTC. Time now 2018-Apr-20 07:04 UTC.
Position N 30°50' E 032°19'.
Warning: this ship's position is 12 days out of date.

Length 190 m; draft 12.7 m.

Type: Cargo ship. MMSI: 566237000.

Date/timePositionNaut miles runAvg speedWind from/ knotsBaromVisibWave heightAir tempDewpointWater temp
2018-Apr-07 09:16N 30°50' E 032°19'2 8.5
2018-Apr-07 08:59N 30°52' E 032°19'12 8.4
2018-Apr-07 07:34N 31°04' E 032°19'2 8.2
2018-Apr-07 07:17N 31°06' E 032°19'4 8.2
2018-Apr-07 06:51N 31°10' E 032°20'11 7.8
2018-Apr-07 05:29N 31°20' E 032°23'4 7.6
2018-Apr-07 05:01N 31°24' E 032°22'3 5.8
2018-Apr-07 04:30N 31°24' E 032°19'0 1.0
2018-Apr-07 04:00N 31°24' E 032°18'0 0.0
2018-Apr-07 03:30N 31°24' E 032°18'0 0.1
2018-Apr-07 03:00N 31°24' E 032°18'0 0.1
2018-Apr-07 02:30N 31°24' E 032°18'0 0.0
2018-Apr-07 02:00N 31°24' E 032°18'0 0.1
2018-Apr-07 01:24N 31°24' E 032°18'0 0.0
2018-Apr-07 01:00N 31°24' E 032°18'0 0.0
2018-Apr-07 00:30N 31°24' E 032°18'0 0.0
2018-Apr-06 23:45N 31°24' E 032°18'0 0.0
2018-Apr-06 23:30N 31°24' E 032°18'0 0.0
2018-Apr-06 22:58N 31°24' E 032°18'0 0.0
2018-Apr-06 22:22N 31°24' E 032°18'0 0.0
2018-Apr-06 21:46N 31°24' E 032°18'0 0.0
2018-Apr-06 21:22N 31°24' E 032°18'0 0.0
2018-Apr-06 20:58N 31°24' E 032°18'0 0.0
2018-Apr-06 20:25N 31°24' E 032°18'0 0.0
2018-Apr-06 19:56N 31°24' E 032°18'0 0.0
2018-Apr-06 19:20N 31°24' E 032°18'0 0.0
2018-Apr-06 18:59N 31°24' E 032°18'0 0.0
2018-Apr-06 18:29N 31°24' E 032°18'0 0.0
2018-Apr-06 17:59N 31°24' E 032°18'0 0.0
2018-Apr-06 17:29N 31°24' E 032°18'0 0.0
2018-Apr-06 16:59N 31°24' E 032°18'0 0.0
2018-Apr-06 16:29N 31°24' E 032°18'0 0.0
2018-Apr-06 15:59N 31°24' E 032°18'0 0.0
2018-Apr-06 15:26N 31°24' E 032°18'0 0.0
2018-Apr-06 14:59N 31°24' E 032°18'0 0.0
2018-Apr-06 14:29N 31°24' E 032°18'0 0.0
2018-Apr-06 13:59N 31°24' E 032°18'0 0.0
2018-Apr-06 13:30N 31°24' E 032°18'0 0.0
2018-Apr-06 13:00N 31°24' E 032°18'0 0.0
2018-Apr-06 12:30N 31°24' E 032°18'0 0.0
2018-Apr-06 12:00N 31°24' E 032°18'0 0.0
2018-Apr-06 11:30N 31°24' E 032°18'0 0.0
2018-Apr-06 10:54N 31°24' E 032°18'0 0.0
2018-Apr-06 10:30N 31°24' E 032°18'0 0.0
2018-Apr-06 10:00N 31°24' E 032°18'0 0.0
2018-Apr-06 09:30N 31°24' E 032°18'0 0.1
2018-Apr-06 09:00N 31°24' E 032°18'0 0.3
2018-Apr-06 08:07N 31°24' E 032°18'4 6.4
2018-Apr-06 07:27N 31°28' E 032°16'510.2
2018-Apr-06 06:58N 31°32' E 032°12'4 9.8
2018-Apr-06 06:30N 31°35' E 032°09'610.9
2018-Apr-06 05:59N 31°39' E 032°04'511.0
2018-Apr-06 05:31N 31°43' E 031°60'611.5
2018-Apr-06 05:00N 31°47' E 031°55'611.8
2018-Apr-06 04:29N 31°51' E 031°50'611.7
2018-Apr-06 04:01N 31°55' E 031°45'611.9
2018-Apr-06 03:30N 31°60' E 031°41'611.9
2018-Apr-06 02:59N 32°04' E 031°36'611.9
2018-Apr-06 02:30N 32°08' E 031°31'611.9
2018-Apr-06 02:00N 32°13' E 031°26'1011.9
2018-Apr-06 01:08N 32°21' E 031°19'212.1
2018-Apr-06 01:00N 32°22' E 031°17'812.1
2018-Apr-06 00:20N 32°28' E 031°11'412.1
2018-Apr-06 00:00N 32°31' E 031°08'612.4
2018-Apr-05 23:30N 32°35' E 031°03'612.3
2018-Apr-05 23:00N 32°40' E 030°58'912.0
2018-Apr-05 22:13N 32°47' E 030°50'511.9
2018-Apr-05 21:50N 32°50' E 030°47'711.6
2018-Apr-05 21:15N 32°55' E 030°41'711.4
2018-Apr-05 20:39N 33°00' E 030°36'3111.5
2018-Apr-05 17:56N 33°24' E 030°11'3911.7
2018-Apr-05 14:34N 33°53' E 029°39'111.5
2018-Apr-05 14:29N 33°54' E 029°39'511.4
2018-Apr-05 14:00N 33°58' E 029°34'611.5
2018-Apr-05 13:30N 34°02' E 029°29'611.5
2018-Apr-05 13:00N 34°06' E 029°25'2611.6
2018-Apr-05 10:48N 34°25' E 029°04'23511.8
2018-Apr-04 14:55N 37°23' E 025°55'511.7
2018-Apr-04 14:30N 37°28' E 025°52'611.0
2018-Apr-04 14:00N 37°33' E 025°51'611.2
2018-Apr-04 13:29N 37°39' E 025°50'12211.5
2018-Apr-04 02:53N 39°41' E 025°49'1111.6
2018-Apr-04 01:58N 39°51' E 025°52'611.5
2018-Apr-04 01:28N 39°57' E 025°54'611.9
2018-Apr-04 01:00N 40°01' E 025°59'612.5
2018-Apr-04 00:30N 40°01' E 026°07'  
2018-Apr-01 08:18N 44°08' E 030°15'310.2
2018-Apr-01 08:00N 44°11' E 030°16'510.2
2018-Apr-01 07:30N 44°16' E 030°18'510.1
2018-Apr-01 07:00N 44°20' E 030°20'1010.1
2018-Apr-01 06:02N 44°30' E 030°24'010.1
2018-Apr-01 06:00N 44°30' E 030°24'510.2
2018-Apr-01 05:29N 44°35' E 030°26'510.0
2018-Apr-01 04:59N 44°40' E 030°28'46 8.8
2018-Mar-31 23:46N 45°24' E 030°48'8 8.3
2018-Mar-31 22:48N 45°31' E 030°51'7 8.3
2018-Mar-31 21:59N 45°38' E 030°54'9 8.8
2018-Mar-31 21:01N 45°46' E 030°59'1 9.0
2018-Mar-31 20:54N 45°47' E 030°59'4 9.2
2018-Mar-31 20:30N 45°50' E 031°01'5 9.6
2018-Mar-31 20:00N 45°55' E 031°04'6 9.8
2018-Mar-31 19:25N 45°60' E 031°07'4 9.6
2018-Mar-31 19:00N 46°04' E 031°09'15 9.9
2018-Mar-31 17:25N 46°15' E 030°54'410.1
2018-Mar-31 16:59N 46°17' E 030°48'4 8.2
2018-Mar-31 16:30N 46°19' E 030°43'2 3.1
2018-Mar-31 15:59N 46°19' E 030°40'0 0.2
2018-Mar-31 15:30N 46°19' E 030°40'0 0.0
2018-Mar-31 14:59N 46°19' E 030°40'0 0.0
2018-Mar-31 12:15N 46°19' E 030°40'0 0.0
2018-Mar-31 11:27N 46°19' E 030°40'0 0.0
2018-Mar-31 10:27N 46°19' E 030°40'0 0.0
2018-Mar-31 07:27N 46°19' E 030°40'0 0.0
2018-Mar-31 05:15N 46°19' E 030°40'0 0.0
2018-Mar-31 04:48N 46°19' E 030°40'0 0.0
2018-Mar-31 04:27N 46°19' E 030°40'0 0.0
2018-Mar-31 03:27N 46°19' E 030°40'0 0.0
2018-Mar-31 02:27N 46°19' E 030°40'0 0.0
2018-Mar-31 02:00N 46°19' E 030°40'0 0.0
2018-Mar-31 01:30N 46°19' E 030°40'0 0.0
2018-Mar-31 00:57N 46°19' E 030°40'0 0.0
2018-Mar-31 00:18N 46°19' E 030°40'0 0.0
2018-Mar-31 00:00N 46°19' E 030°40'0 0.0
2018-Mar-30 22:21N 46°19' E 030°40'0 0.0
2018-Mar-30 21:21N 46°19' E 030°40'0 0.0
2018-Mar-30 20:27N 46°19' E 030°40'0 0.0
2018-Mar-30 19:24N 46°19' E 030°40'0 0.0
2018-Mar-30 18:12N 46°19' E 030°40'0 0.0
2018-Mar-30 16:24N 46°19' E 030°40'0 0.0
2018-Mar-30 15:21N 46°19' E 030°40'0 0.0
2018-Mar-30 14:27N 46°19' E 030°40'0 0.0
2018-Mar-30 13:15N 46°19' E 030°40'0 0.0
2018-Mar-30 12:24N 46°19' E 030°40'0 0.0
2018-Mar-30 11:27N 46°19' E 030°40'0 0.0
2018-Mar-30 10:27N 46°19' E 030°40'0 0.0
2018-Mar-30 09:24N 46°19' E 030°40'0 0.0
2018-Mar-30 08:27N 46°19' E 030°40'0 0.0
2018-Mar-30 07:27N 46°19' E 030°40'0 0.0
2018-Mar-30 05:18N 46°19' E 030°40'0 0.0
2018-Mar-30 04:24N 46°19' E 030°40'0 0.0
2018-Mar-30 01:18N 46°19' E 030°40'0 0.0
2018-Mar-30 00:27N 46°19' E 030°40'0 0.0
2018-Mar-29 23:24N 46°19' E 030°40'0 0.0
2018-Mar-29 21:24N 46°19' E 030°40'0 0.0
2018-Mar-29 19:27N 46°19' E 030°40'0 0.0
2018-Mar-29 18:21N 46°19' E 030°40'0 0.0
2018-Mar-29 17:27N 46°19' E 030°40'0 0.0
2018-Mar-29 15:12N 46°19' E 030°40'0 0.0
2018-Mar-29 14:24N 46°19' E 030°40'0 0.0
2018-Mar-29 13:27N 46°19' E 030°40'0 0.0
2018-Mar-29 12:21N 46°19' E 030°40'0 0.0
2018-Mar-29 11:21N 46°19' E 030°40'0 0.0
2018-Mar-29 10:27N 46°19' E 030°40'0 0.0
2018-Mar-29 09:21N 46°19' E 030°40'0 0.0
2018-Mar-29 08:27N 46°19' E 030°40'0 0.0
2018-Mar-29 07:27N 46°19' E 030°40'0 0.0
2018-Mar-29 06:27N 46°19' E 030°40'0 0.0
2018-Mar-29 05:24N 46°19' E 030°40'0 0.0
2018-Mar-29 04:24N 46°19' E 030°40'0 0.0
2018-Mar-29 03:18N 46°19' E 030°40'0 0.0
2018-Mar-29 01:24N 46°19' E 030°40'0 0.0
2018-Mar-29 00:24N 46°19' E 030°40'0 0.0
2018-Mar-28 23:24N 46°19' E 030°40'0 0.0
2018-Mar-28 22:18N 46°19' E 030°40'0 0.0
2018-Mar-28 21:21N 46°19' E 030°40'0 0.0
2018-Mar-28 20:24N 46°19' E 030°40'0 0.0
2018-Mar-28 19:27N 46°19' E 030°40'0 0.0
2018-Mar-28 18:27N 46°19' E 030°40'0 0.0
2018-Mar-28 15:21N 46°19' E 030°40'0 0.0
2018-Mar-28 14:27N 46°19' E 030°40'0 0.0
2018-Mar-28 13:15N 46°19' E 030°40'0 0.0
2018-Mar-28 12:24N 46°19' E 030°40'0 0.0
2018-Mar-28 11:09N 46°19' E 030°40'0 0.0
2018-Mar-28 10:24N 46°19' E 030°40'0 0.0
2018-Mar-28 09:24N 46°19' E 030°40'  
Track history (hours):
 
Tides and Currents Weather Stations Pressure Air Temp Water Temp Dewpoint Dewpoint Depression Visibility Wind Speed Wind Dir Waves Ship Positions

Mandarin River

Last reported at 2018-Apr-07 09:16 UTC. Time now 2018-Apr-20 07:04 UTC.
Position N 30°50' E 032°19'.
Warning: this ship's position is 12 days out of date.

Length 190 m; draft 12.7 m.

Type: Cargo ship. MMSI: 566237000.

Date/timePositionNaut miles runAvg speedWind from/ knotsBaromVisibWave heightAir tempDewpointWater temp
2018-Apr-07 09:16N 30°50' E 032°19'2 8.5
2018-Apr-07 08:59N 30°52' E 032°19'12 8.4
2018-Apr-07 07:34N 31°04' E 032°19'2 8.2
2018-Apr-07 07:17N 31°06' E 032°19'4 8.2
2018-Apr-07 06:51N 31°10' E 032°20'11 7.8
2018-Apr-07 05:29N 31°20' E 032°23'4 7.6
2018-Apr-07 05:01N 31°24' E 032°22'3 5.8
2018-Apr-07 04:30N 31°24' E 032°19'0 1.0
2018-Apr-07 04:00N 31°24' E 032°18'0 0.0
2018-Apr-07 03:30N 31°24' E 032°18'0 0.1
2018-Apr-07 03:00N 31°24' E 032°18'0 0.1
2018-Apr-07 02:30N 31°24' E 032°18'0 0.0
2018-Apr-07 02:00N 31°24' E 032°18'0 0.1
2018-Apr-07 01:24N 31°24' E 032°18'0 0.0
2018-Apr-07 01:00N 31°24' E 032°18'0 0.0
2018-Apr-07 00:30N 31°24' E 032°18'0 0.0
2018-Apr-06 23:45N 31°24' E 032°18'0 0.0
2018-Apr-06 23:30N 31°24' E 032°18'0 0.0
2018-Apr-06 22:58N 31°24' E 032°18'0 0.0
2018-Apr-06 22:22N 31°24' E 032°18'0 0.0
2018-Apr-06 21:46N 31°24' E 032°18'0 0.0
2018-Apr-06 21:22N 31°24' E 032°18'0 0.0
2018-Apr-06 20:58N 31°24' E 032°18'0 0.0
2018-Apr-06 20:25N 31°24' E 032°18'0 0.0
2018-Apr-06 19:56N 31°24' E 032°18'0 0.0
2018-Apr-06 19:20N 31°24' E 032°18'0 0.0
2018-Apr-06 18:59N 31°24' E 032°18'0 0.0
2018-Apr-06 18:29N 31°24' E 032°18'0 0.0
2018-Apr-06 17:59N 31°24' E 032°18'0 0.0
2018-Apr-06 17:29N 31°24' E 032°18'0 0.0
2018-Apr-06 16:59N 31°24' E 032°18'0 0.0
2018-Apr-06 16:29N 31°24' E 032°18'0 0.0
2018-Apr-06 15:59N 31°24' E 032°18'0 0.0
2018-Apr-06 15:26N 31°24' E 032°18'0 0.0
2018-Apr-06 14:59N 31°24' E 032°18'0 0.0
2018-Apr-06 14:29N 31°24' E 032°18'0 0.0
2018-Apr-06 13:59N 31°24' E 032°18'0 0.0
2018-Apr-06 13:30N 31°24' E 032°18'0 0.0
2018-Apr-06 13:00N 31°24' E 032°18'0 0.0
2018-Apr-06 12:30N 31°24' E 032°18'0 0.0
2018-Apr-06 12:00N 31°24' E 032°18'0 0.0
2018-Apr-06 11:30N 31°24' E 032°18'0 0.0
2018-Apr-06 10:54N 31°24' E 032°18'0 0.0
2018-Apr-06 10:30N 31°24' E 032°18'0 0.0
2018-Apr-06 10:00N 31°24' E 032°18'0 0.0
2018-Apr-06 09:30N 31°24' E 032°18'0 0.1
2018-Apr-06 09:00N 31°24' E 032°18'0 0.3
2018-Apr-06 08:07N 31°24' E 032°18'4 6.4
2018-Apr-06 07:27N 31°28' E 032°16'510.2
2018-Apr-06 06:58N 31°32' E 032°12'4 9.8
2018-Apr-06 06:30N 31°35' E 032°09'610.9
2018-Apr-06 05:59N 31°39' E 032°04'511.0
2018-Apr-06 05:31N 31°43' E 031°60'611.5
2018-Apr-06 05:00N 31°47' E 031°55'611.8
2018-Apr-06 04:29N 31°51' E 031°50'611.7
2018-Apr-06 04:01N 31°55' E 031°45'611.9
2018-Apr-06 03:30N 31°60' E 031°41'611.9
2018-Apr-06 02:59N 32°04' E 031°36'611.9
2018-Apr-06 02:30N 32°08' E 031°31'611.9
2018-Apr-06 02:00N 32°13' E 031°26'1011.9
2018-Apr-06 01:08N 32°21' E 031°19'212.1
2018-Apr-06 01:00N 32°22' E 031°17'812.1
2018-Apr-06 00:20N 32°28' E 031°11'412.1
2018-Apr-06 00:00N 32°31' E 031°08'612.4
2018-Apr-05 23:30N 32°35' E 031°03'612.3
2018-Apr-05 23:00N 32°40' E 030°58'912.0
2018-Apr-05 22:13N 32°47' E 030°50'511.9
2018-Apr-05 21:50N 32°50' E 030°47'711.6
2018-Apr-05 21:15N 32°55' E 030°41'711.4
2018-Apr-05 20:39N 33°00' E 030°36'3111.5
2018-Apr-05 17:56N 33°24' E 030°11'3911.7
2018-Apr-05 14:34N 33°53' E 029°39'111.5
2018-Apr-05 14:29N 33°54' E 029°39'511.4
2018-Apr-05 14:00N 33°58' E 029°34'611.5
2018-Apr-05 13:30N 34°02' E 029°29'611.5
2018-Apr-05 13:00N 34°06' E 029°25'2611.6
2018-Apr-05 10:48N 34°25' E 029°04'23511.8
2018-Apr-04 14:55N 37°23' E 025°55'511.7
2018-Apr-04 14:30N 37°28' E 025°52'611.0
2018-Apr-04 14:00N 37°33' E 025°51'611.2
2018-Apr-04 13:29N 37°39' E 025°50'12211.5
2018-Apr-04 02:53N 39°41' E 025°49'1111.6
2018-Apr-04 01:58N 39°51' E 025°52'611.5
2018-Apr-04 01:28N 39°57' E 025°54'611.9
2018-Apr-04 01:00N 40°01' E 025°59'612.5
2018-Apr-04 00:30N 40°01' E 026°07'  
2018-Apr-01 08:18N 44°08' E 030°15'310.2
2018-Apr-01 08:00N 44°11' E 030°16'510.2
2018-Apr-01 07:30N 44°16' E 030°18'510.1
2018-Apr-01 07:00N 44°20' E 030°20'1010.1
2018-Apr-01 06:02N 44°30' E 030°24'010.1
2018-Apr-01 06:00N 44°30' E 030°24'510.2
2018-Apr-01 05:29N 44°35' E 030°26'510.0
2018-Apr-01 04:59N 44°40' E 030°28'46 8.8
2018-Mar-31 23:46N 45°24' E 030°48'8 8.3
2018-Mar-31 22:48N 45°31' E 030°51'7 8.3
2018-Mar-31 21:59N 45°38' E 030°54'9 8.8
2018-Mar-31 21:01N 45°46' E 030°59'1 9.0
2018-Mar-31 20:54N 45°47' E 030°59'4 9.2
2018-Mar-31 20:30N 45°50' E 031°01'5 9.6
2018-Mar-31 20:00N 45°55' E 031°04'6 9.8
2018-Mar-31 19:25N 45°60' E 031°07'4 9.6
2018-Mar-31 19:00N 46°04' E 031°09'15 9.9
2018-Mar-31 17:25N 46°15' E 030°54'410.1
2018-Mar-31 16:59N 46°17' E 030°48'4 8.2
2018-Mar-31 16:30N 46°19' E 030°43'2 3.1
2018-Mar-31 15:59N 46°19' E 030°40'0 0.2
2018-Mar-31 15:30N 46°19' E 030°40'0 0.0
2018-Mar-31 14:59N 46°19' E 030°40'0 0.0
2018-Mar-31 12:15N 46°19' E 030°40'0 0.0
2018-Mar-31 11:27N 46°19' E 030°40'0 0.0
2018-Mar-31 10:27N 46°19' E 030°40'0 0.0
2018-Mar-31 07:27N 46°19' E 030°40'0 0.0
2018-Mar-31 05:15N 46°19' E 030°40'0 0.0
2018-Mar-31 04:48N 46°19' E 030°40'0 0.0
2018-Mar-31 04:27N 46°19' E 030°40'0 0.0
2018-Mar-31 03:27N 46°19' E 030°40'0 0.0
2018-Mar-31 02:27N 46°19' E 030°40'0 0.0
2018-Mar-31 02:00N 46°19' E 030°40'0 0.0
2018-Mar-31 01:30N 46°19' E 030°40'0 0.0
2018-Mar-31 00:57N 46°19' E 030°40'0 0.0
2018-Mar-31 00:18N 46°19' E 030°40'0 0.0
2018-Mar-31 00:00N 46°19' E 030°40'0 0.0
2018-Mar-30 22:21N 46°19' E 030°40'0 0.0
2018-Mar-30 21:21N 46°19' E 030°40'0 0.0
2018-Mar-30 20:27N 46°19' E 030°40'0 0.0
2018-Mar-30 19:24N 46°19' E 030°40'0 0.0
2018-Mar-30 18:12N 46°19' E 030°40'0 0.0
2018-Mar-30 16:24N 46°19' E 030°40'0 0.0
2018-Mar-30 15:21N 46°19' E 030°40'0 0.0
2018-Mar-30 14:27N 46°19' E 030°40'0 0.0
2018-Mar-30 13:15N 46°19' E 030°40'0 0.0
2018-Mar-30 12:24N 46°19' E 030°40'0 0.0
2018-Mar-30 11:27N 46°19' E 030°40'0 0.0
2018-Mar-30 10:27N 46°19' E 030°40'0 0.0
2018-Mar-30 09:24N 46°19' E 030°40'0 0.0
2018-Mar-30 08:27N 46°19' E 030°40'0 0.0
2018-Mar-30 07:27N 46°19' E 030°40'0 0.0
2018-Mar-30 05:18N 46°19' E 030°40'0 0.0
2018-Mar-30 04:24N 46°19' E 030°40'0 0.0
2018-Mar-30 01:18N 46°19' E 030°40'0 0.0
2018-Mar-30 00:27N 46°19' E 030°40'0 0.0
2018-Mar-29 23:24N 46°19' E 030°40'0 0.0
2018-Mar-29 21:24N 46°19' E 030°40'0 0.0
2018-Mar-29 19:27N 46°19' E 030°40'0 0.0
2018-Mar-29 18:21N 46°19' E 030°40'0 0.0
2018-Mar-29 17:27N 46°19' E 030°40'0 0.0
2018-Mar-29 15:12N 46°19' E 030°40'0 0.0
2018-Mar-29 14:24N 46°19' E 030°40'0 0.0
2018-Mar-29 13:27N 46°19' E 030°40'0 0.0
2018-Mar-29 12:21N 46°19' E 030°40'0 0.0
2018-Mar-29 11:21N 46°19' E 030°40'0 0.0
2018-Mar-29 10:27N 46°19' E 030°40'0 0.0
2018-Mar-29 09:21N 46°19' E 030°40'0 0.0
2018-Mar-29 08:27N 46°19' E 030°40'0 0.0
2018-Mar-29 07:27N 46°19' E 030°40'0 0.0
2018-Mar-29 06:27N 46°19' E 030°40'0 0.0
2018-Mar-29 05:24N 46°19' E 030°40'0 0.0
2018-Mar-29 04:24N 46°19' E 030°40'0 0.0
2018-Mar-29 03:18N 46°19' E 030°40'0 0.0
2018-Mar-29 01:24N 46°19' E 030°40'0 0.0
2018-Mar-29 00:24N 46°19' E 030°40'0 0.0
2018-Mar-28 23:24N 46°19' E 030°40'0 0.0
2018-Mar-28 22:18N 46°19' E 030°40'0 0.0
2018-Mar-28 21:21N 46°19' E 030°40'0 0.0
2018-Mar-28 20:24N 46°19' E 030°40'0 0.0
2018-Mar-28 19:27N 46°19' E 030°40'0 0.0
2018-Mar-28 18:27N 46°19' E 030°40'0 0.0
2018-Mar-28 15:21N 46°19' E 030°40'0 0.0
2018-Mar-28 14:27N 46°19' E 030°40'0 0.0
2018-Mar-28 13:15N 46°19' E 030°40'0 0.0
2018-Mar-28 12:24N 46°19' E 030°40'0 0.0
2018-Mar-28 11:09N 46°19' E 030°40'0 0.0
2018-Mar-28 10:24N 46°19' E 030°40'0 0.0
2018-Mar-28 09:24N 46°19' E 030°40'  

Dump ship's entire track history